sensor_id;sensor_type;location;lat;lon;timestamp;temperature;humidity
70820;DHT22;58439;51.046;13.692;2022-12-07T00:01:19;3.20;99.90
70820;DHT22;58439;51.046;13.692;2022-12-07T00:03:50;3.20;99.90
70820;DHT22;58439;51.046;13.692;2022-12-07T00:06:20;3.20;99.90
70820;DHT22;58439;51.046;13.692;2022-12-07T00:08:47;3.20;99.90
70820;DHT22;58439;51.046;13.692;2022-12-07T00:11:20;3.20;99.90
70820;DHT22;58439;51.046;13.692;2022-12-07T00:13:55;3.20;99.90
70820;DHT22;58439;51.046;13.692;2022-12-07T00:16:26;3.20;99.90
70820;DHT22;58439;51.046;13.692;2022-12-07T00:18:55;3.20;99.90
70820;DHT22;58439;51.046;13.692;2022-12-07T00:21:24;3.20;99.90
70820;DHT22;58439;51.046;13.692;2022-12-07T00:23:54;3.20;99.90
70820;DHT22;58439;51.046;13.692;2022-12-07T00:26:31;3.20;99.90
70820;DHT22;58439;51.046;13.692;2022-12-07T00:29:11;3.20;99.90
70820;DHT22;58439;51.046;13.692;2022-12-07T00:31:42;3.20;99.90
70820;DHT22;58439;51.046;13.692;2022-12-07T00:34:15;3.20;99.90
70820;DHT22;58439;51.046;13.692;2022-12-07T00:36:44;3.20;99.90
70820;DHT22;58439;51.046;13.692;2022-12-07T00:39:12;3.20;99.90
70820;DHT22;58439;51.046;13.692;2022-12-07T00:41:40;3.10;99.90
70820;DHT22;58439;51.046;13.692;2022-12-07T00:44:07;3.20;99.90
70820;DHT22;58439;51.046;13.692;2022-12-07T00:46:35;3.20;99.90
70820;DHT22;58439;51.046;13.692;2022-12-07T00:49:02;3.20;99.90
70820;DHT22;58439;51.046;13.692;2022-12-07T00:51:29;3.30;99.90
70820;DHT22;58439;51.046;13.692;2022-12-07T00:53:57;3.30;99.80
70820;DHT22;58439;51.046;13.692;2022-12-07T00:56:27;3.30;99.80
70820;DHT22;58439;51.046;13.692;2022-12-07T00:59:00;3.30;99.60
70820;DHT22;58439;51.046;13.692;2022-12-07T01:01:30;3.30;99.70
70820;DHT22;58439;51.046;13.692;2022-12-07T01:04:00;3.20;99.70
70820;DHT22;58439;51.046;13.692;2022-12-07T01:06:30;3.20;99.90
70820;DHT22;58439;51.046;13.692;2022-12-07T01:08:59;3.20;99.90
70820;DHT22;58439;51.046;13.692;2022-12-07T01:11:29;3.20;99.90
70820;DHT22;58439;51.046;13.692;2022-12-07T01:13:59;3.20;99.70
70820;DHT22;58439;51.046;13.692;2022-12-07T01:16:29;3.20;99.80
70820;DHT22;58439;51.046;13.692;2022-12-07T01:18:59;3.20;99.70
70820;DHT22;58439;51.046;13.692;2022-12-07T01:21:30;3.20;99.60
70820;DHT22;58439;51.046;13.692;2022-12-07T01:24:04;3.20;99.60
70820;DHT22;58439;51.046;13.692;2022-12-07T01:26:33;3.20;99.70
70820;DHT22;58439;51.046;13.692;2022-12-07T01:29:01;3.20;99.70
70820;DHT22;58439;51.046;13.692;2022-12-07T01:31:29;3.20;99.90
70820;DHT22;58439;51.046;13.692;2022-12-07T01:33:58;3.20;99.90
70820;DHT22;58439;51.046;13.692;2022-12-07T01:36:30;3.20;99.90
70820;DHT22;58439;51.046;13.692;2022-12-07T01:39:01;3.10;99.90
70820;DHT22;58439;51.046;13.692;2022-12-07T01:41:33;3.10;99.90
70820;DHT22;58439;51.046;13.692;2022-12-07T01:47:32;3.10;99.90
70820;DHT22;58439;51.046;13.692;2022-12-07T01:50:00;3.10;99.90
70820;DHT22;58439;51.046;13.692;2022-12-07T01:52:30;3.10;99.90
70820;DHT22;58439;51.046;13.692;2022-12-07T01:55:06;3.00;99.90
70820;DHT22;58439;51.046;13.692;2022-12-07T01:57:40;3.00;99.90
70820;DHT22;58439;51.046;13.692;2022-12-07T02:00:11;3.10;99.90
70820;DHT22;58439;51.046;13.692;2022-12-07T02:03:29;3.00;99.90
70820;DHT22;58439;51.046;13.692;2022-12-07T02:05:46;3.00;99.90
70820;DHT22;58439;51.046;13.692;2022-12-07T02:08:15;2.90;99.90
70820;DHT22;58439;51.046;13.692;2022-12-07T02:10:44;2.90;99.90
70820;DHT22;58439;51.046;13.692;2022-12-07T02:13:14;2.80;99.90
70820;DHT22;58439;51.046;13.692;2022-12-07T02:16:08;2.70;99.90
70820;DHT22;58439;51.046;13.692;2022-12-07T02:22:17;2.50;99.90
70820;DHT22;58439;51.046;13.692;2022-12-07T02:26:23;2.50;99.90
70820;DHT22;58439;51.046;13.692;2022-12-07T02:29:25;2.50;99.90
70820;DHT22;58439;51.046;13.692;2022-12-07T02:32:57;2.40;99.90
70820;DHT22;58439;51.046;13.692;2022-12-07T02:36:32;2.30;99.90
70820;DHT22;58439;51.046;13.692;2022-12-07T02:39:16;2.20;99.90
70820;DHT22;58439;51.046;13.692;2022-12-07T02:41:54;2.20;99.90
70820;DHT22;58439;51.046;13.692;2022-12-07T02:44:27;2.20;99.90
70820;DHT22;58439;51.046;13.692;2022-12-07T02:46:58;2.20;99.90
70820;DHT22;58439;51.046;13.692;2022-12-07T02:49:32;2.20;99.90
70820;DHT22;58439;51.046;13.692;2022-12-07T02:52:00;2.20;99.90
70820;DHT22;58439;51.046;13.692;2022-12-07T02:54:27;2.20;99.90
70820;DHT22;58439;51.046;13.692;2022-12-07T02:57:24;2.20;99.90
70820;DHT22;58439;51.046;13.692;2022-12-07T03:00:19;2.20;99.90
70820;DHT22;58439;51.046;13.692;2022-12-07T03:03:12;2.20;99.90
70820;DHT22;58439;51.046;13.692;2022-12-07T03:09:37;2.30;99.90
70820;DHT22;58439;51.046;13.692;2022-12-07T03:12:18;2.30;99.90
70820;DHT22;58439;51.046;13.692;2022-12-07T03:15:09;2.40;99.90
70820;DHT22;58439;51.046;13.692;2022-12-07T03:17:43;2.40;99.90
70820;DHT22;58439;51.046;13.692;2022-12-07T03:20:14;2.40;99.90
70820;DHT22;58439;51.046;13.692;2022-12-07T03:22:47;2.40;99.90
70820;DHT22;58439;51.046;13.692;2022-12-07T03:25:16;2.30;99.90
70820;DHT22;58439;51.046;13.692;2022-12-07T03:27:52;2.30;99.90
70820;DHT22;58439;51.046;13.692;2022-12-07T03:30:27;2.20;99.90
70820;DHT22;58439;51.046;13.692;2022-12-07T03:33:03;2.10;99.90
70820;DHT22;58439;51.046;13.692;2022-12-07T03:36:01;2.10;99.90
70820;DHT22;58439;51.046;13.692;2022-12-07T03:38:57;2.10;99.90
70820;DHT22;58439;51.046;13.692;2022-12-07T03:41:36;2.10;99.90
70820;DHT22;58439;51.046;13.692;2022-12-07T03:44:11;2.00;99.90
70820;DHT22;58439;51.046;13.692;2022-12-07T03:49:43;1.90;99.90
70820;DHT22;58439;51.046;13.692;2022-12-07T03:52:21;1.90;99.90
70820;DHT22;58439;51.046;13.692;2022-12-07T03:55:20;1.90;99.90
70820;DHT22;58439;51.046;13.692;2022-12-07T03:57:53;2.00;99.90
70820;DHT22;58439;51.046;13.692;2022-12-07T04:00:23;2.00;99.90
70820;DHT22;58439;51.046;13.692;2022-12-07T04:02:55;2.10;99.90
70820;DHT22;58439;51.046;13.692;2022-12-07T04:05:23;2.10;99.90
70820;DHT22;58439;51.046;13.692;2022-12-07T04:07:50;2.10;99.90
70820;DHT22;58439;51.046;13.692;2022-12-07T04:10:18;2.20;99.90
70820;DHT22;58439;51.046;13.692;2022-12-07T04:12:45;2.20;99.90
70820;DHT22;58439;51.046;13.692;2022-12-07T04:15:12;2.10;99.90
70820;DHT22;58439;51.046;13.692;2022-12-07T04:17:40;2.10;99.90
70820;DHT22;58439;51.046;13.692;2022-12-07T04:20:08;2.10;99.90
70820;DHT22;58439;51.046;13.692;2022-12-07T04:22:35;2.10;99.90
70820;DHT22;58439;51.046;13.692;2022-12-07T04:25:03;2.10;99.90
70820;DHT22;58439;51.046;13.692;2022-12-07T04:27:31;2.00;99.90
70820;DHT22;58439;51.046;13.692;2022-12-07T04:29:58;2.00;99.70
70820;DHT22;58439;51.046;13.692;2022-12-07T04:32:25;2.00;99.80
70820;DHT22;58439;51.046;13.692;2022-12-07T04:34:52;1.90;99.80
70820;DHT22;58439;51.046;13.692;2022-12-07T04:37:22;1.90;99.90
70820;DHT22;58439;51.046;13.692;2022-12-07T04:39:50;1.90;99.90
70820;DHT22;58439;51.046;13.692;2022-12-07T04:42:17;1.90;99.90
70820;DHT22;58439;51.046;13.692;2022-12-07T04:44:44;1.90;99.80
70820;DHT22;58439;51.046;13.692;2022-12-07T04:47:11;1.90;99.80
70820;DHT22;58439;51.046;13.692;2022-12-07T04:49:38;1.90;99.80
70820;DHT22;58439;51.046;13.692;2022-12-07T04:52:06;1.90;99.50
70820;DHT22;58439;51.046;13.692;2022-12-07T04:54:33;1.80;99.50
70820;DHT22;58439;51.046;13.692;2022-12-07T04:57:00;1.80;99.50
70820;DHT22;58439;51.046;13.692;2022-12-07T04:59:27;1.80;99.50
70820;DHT22;58439;51.046;13.692;2022-12-07T05:01:54;1.80;99.40
70820;DHT22;58439;51.046;13.692;2022-12-07T05:04:21;1.80;99.60
70820;DHT22;58439;51.046;13.692;2022-12-07T05:06:48;1.80;99.80
70820;DHT22;58439;51.046;13.692;2022-12-07T05:09:16;1.80;99.90
70820;DHT22;58439;51.046;13.692;2022-12-07T05:11:43;1.80;99.90
70820;DHT22;58439;51.046;13.692;2022-12-07T05:14:18;1.90;99.60
70820;DHT22;58439;51.046;13.692;2022-12-07T05:16:49;1.80;99.50
70820;DHT22;58439;51.046;13.692;2022-12-07T05:19:18;1.80;99.50
70820;DHT22;58439;51.046;13.692;2022-12-07T05:21:46;1.80;99.50
70820;DHT22;58439;51.046;13.692;2022-12-07T05:24:15;1.70;99.70
70820;DHT22;58439;51.046;13.692;2022-12-07T05:26:43;1.80;99.90
70820;DHT22;58439;51.046;13.692;2022-12-07T05:29:16;1.80;99.90
70820;DHT22;58439;51.046;13.692;2022-12-07T05:31:44;1.80;99.90
70820;DHT22;58439;51.046;13.692;2022-12-07T05:34:12;2.00;99.80
70820;DHT22;58439;51.046;13.692;2022-12-07T05:36:40;2.00;99.50
70820;DHT22;58439;51.046;13.692;2022-12-07T05:39:08;2.00;99.40
70820;DHT22;58439;51.046;13.692;2022-12-07T05:41:36;2.00;99.20
70820;DHT22;58439;51.046;13.692;2022-12-07T05:44:22;2.10;98.90
70820;DHT22;58439;51.046;13.692;2022-12-07T05:46:49;2.10;98.60
70820;DHT22;58439;51.046;13.692;2022-12-07T05:49:16;2.10;98.50
70820;DHT22;58439;51.046;13.692;2022-12-07T05:51:43;2.10;98.30
70820;DHT22;58439;51.046;13.692;2022-12-07T05:54:13;2.10;98.10
70820;DHT22;58439;51.046;13.692;2022-12-07T05:56:40;2.10;98.10
70820;DHT22;58439;51.046;13.692;2022-12-07T05:59:09;2.10;98.20
70820;DHT22;58439;51.046;13.692;2022-12-07T06:01:59;2.10;98.30
70820;DHT22;58439;51.046;13.692;2022-12-07T06:04:33;2.30;98.40
70820;DHT22;58439;51.046;13.692;2022-12-07T06:07:02;2.30;98.20
70820;DHT22;58439;51.046;13.692;2022-12-07T06:09:31;2.40;98.00
70820;DHT22;58439;51.046;13.692;2022-12-07T06:11:59;2.50;97.70
70820;DHT22;58439;51.046;13.692;2022-12-07T06:14:45;2.50;97.50
70820;DHT22;58439;51.046;13.692;2022-12-07T06:17:13;2.60;97.50
70820;DHT22;58439;51.046;13.692;2022-12-07T06:19:41;2.60;97.20
70820;DHT22;58439;51.046;13.692;2022-12-07T06:22:11;2.60;97.20
70820;DHT22;58439;51.046;13.692;2022-12-07T06:24:40;2.70;97.20
70820;DHT22;58439;51.046;13.692;2022-12-07T06:27:08;2.70;96.90
70820;DHT22;58439;51.046;13.692;2022-12-07T06:29:36;2.70;96.50
70820;DHT22;58439;51.046;13.692;2022-12-07T06:32:04;2.80;96.30
70820;DHT22;58439;51.046;13.692;2022-12-07T06:34:31;2.80;96.30
70820;DHT22;58439;51.046;13.692;2022-12-07T06:36:59;2.80;96.30
70820;DHT22;58439;51.046;13.692;2022-12-07T06:39:27;2.80;96.20
70820;DHT22;58439;51.046;13.692;2022-12-07T06:41:56;2.80;96.20
70820;DHT22;58439;51.046;13.692;2022-12-07T06:44:24;2.80;96.20
70820;DHT22;58439;51.046;13.692;2022-12-07T06:46:52;2.90;96.60
70820;DHT22;58439;51.046;13.692;2022-12-07T06:49:40;2.80;96.60
70820;DHT22;58439;51.046;13.692;2022-12-07T06:52:07;2.80;96.90
70820;DHT22;58439;51.046;13.692;2022-12-07T06:54:34;2.80;97.20
70820;DHT22;58439;51.046;13.692;2022-12-07T06:57:01;2.90;97.40
70820;DHT22;58439;51.046;13.692;2022-12-07T06:59:28;2.90;97.70
70820;DHT22;58439;51.046;13.692;2022-12-07T07:01:56;2.90;97.70
70820;DHT22;58439;51.046;13.692;2022-12-07T07:04:23;3.00;97.70
70820;DHT22;58439;51.046;13.692;2022-12-07T07:06:51;3.00;97.90
70820;DHT22;58439;51.046;13.692;2022-12-07T07:09:26;2.90;97.90
70820;DHT22;58439;51.046;13.692;2022-12-07T07:12:01;2.90;98.30
70820;DHT22;58439;51.046;13.692;2022-12-07T07:14:29;2.90;98.70
70820;DHT22;58439;51.046;13.692;2022-12-07T07:16:56;2.80;99.00
70820;DHT22;58439;51.046;13.692;2022-12-07T07:19:24;2.70;99.50
70820;DHT22;58439;51.046;13.692;2022-12-07T07:21:51;2.60;99.90
70820;DHT22;58439;51.046;13.692;2022-12-07T07:24:18;2.50;99.90
70820;DHT22;58439;51.046;13.692;2022-12-07T07:26:45;2.40;99.90
70820;DHT22;58439;51.046;13.692;2022-12-07T07:29:13;2.40;99.90
70820;DHT22;58439;51.046;13.692;2022-12-07T07:31:40;2.40;99.90
70820;DHT22;58439;51.046;13.692;2022-12-07T07:34:07;2.40;99.90
70820;DHT22;58439;51.046;13.692;2022-12-07T07:36:34;2.40;99.90
70820;DHT22;58439;51.046;13.692;2022-12-07T07:39:02;2.40;99.90
70820;DHT22;58439;51.046;13.692;2022-12-07T07:41:29;2.40;99.90
70820;DHT22;58439;51.046;13.692;2022-12-07T07:44:03;2.50;99.90
70820;DHT22;58439;51.046;13.692;2022-12-07T07:46:31;2.50;99.90
70820;DHT22;58439;51.046;13.692;2022-12-07T07:49:23;2.50;99.90
70820;DHT22;58439;51.046;13.692;2022-12-07T07:53:14;2.60;99.90
70820;DHT22;58439;51.046;13.692;2022-12-07T07:56:53;2.60;99.90
70820;DHT22;58439;51.046;13.692;2022-12-07T08:00:12;2.70;99.90
70820;DHT22;58439;51.046;13.692;2022-12-07T08:04:08;2.80;99.90
70820;DHT22;58439;51.046;13.692;2022-12-07T08:06:48;2.90;99.90
70820;DHT22;58439;51.046;13.692;2022-12-07T08:09:15;2.90;99.90
70820;DHT22;58439;51.046;13.692;2022-12-07T08:11:43;3.00;99.90
70820;DHT22;58439;51.046;13.692;2022-12-07T08:14:10;3.00;99.90
70820;DHT22;58439;51.046;13.692;2022-12-07T08:17:07;3.10;99.90
70820;DHT22;58439;51.046;13.692;2022-12-07T08:19:38;3.10;99.90
70820;DHT22;58439;51.046;13.692;2022-12-07T08:22:57;3.10;99.90
70820;DHT22;58439;51.046;13.692;2022-12-07T08:31:21;3.20;99.90
70820;DHT22;58439;51.046;13.692;2022-12-07T08:40:20;3.60;99.90
70820;DHT22;58439;51.046;13.692;2022-12-07T08:42:51;3.70;99.90
70820;DHT22;58439;51.046;13.692;2022-12-07T08:45:20;3.70;99.90
70820;DHT22;58439;51.046;13.692;2022-12-07T08:48:07;3.70;99.90
70820;DHT22;58439;51.046;13.692;2022-12-07T08:50:39;3.80;99.90
70820;DHT22;58439;51.046;13.692;2022-12-07T08:53:21;3.80;99.90
70820;DHT22;58439;51.046;13.692;2022-12-07T08:56:23;3.80;99.90
70820;DHT22;58439;51.046;13.692;2022-12-07T08:59:01;3.80;99.90
70820;DHT22;58439;51.046;13.692;2022-12-07T09:01:31;3.90;99.90
70820;DHT22;58439;51.046;13.692;2022-12-07T09:04:01;4.00;99.90
70820;DHT22;58439;51.046;13.692;2022-12-07T09:07:06;4.00;99.90
70820;DHT22;58439;51.046;13.692;2022-12-07T09:09:34;4.30;99.90
70820;DHT22;58439;51.046;13.692;2022-12-07T09:12:24;4.40;99.60
70820;DHT22;58439;51.046;13.692;2022-12-07T09:14:52;4.50;99.00
70820;DHT22;58439;51.046;13.692;2022-12-07T09:17:19;4.60;98.50
70820;DHT22;58439;51.046;13.692;2022-12-07T09:19:47;4.60;98.30
70820;DHT22;58439;51.046;13.692;2022-12-07T09:22:14;4.60;97.90
70820;DHT22;58439;51.046;13.692;2022-12-07T09:24:42;4.60;97.90
70820;DHT22;58439;51.046;13.692;2022-12-07T09:27:12;4.70;97.60
70820;DHT22;58439;51.046;13.692;2022-12-07T09:29:40;4.70;96.80
70820;DHT22;58439;51.046;13.692;2022-12-07T09:32:07;4.80;96.00
70820;DHT22;58439;51.046;13.692;2022-12-07T09:34:37;4.80;95.40
70820;DHT22;58439;51.046;13.692;2022-12-07T09:37:05;4.80;94.90
70820;DHT22;58439;51.046;13.692;2022-12-07T09:39:33;4.80;95.00
70820;DHT22;58439;51.046;13.692;2022-12-07T09:42:29;4.80;94.80
70820;DHT22;58439;51.046;13.692;2022-12-07T09:45:04;4.80;94.50
70820;DHT22;58439;51.046;13.692;2022-12-07T09:47:52;4.80;94.30
70820;DHT22;58439;51.046;13.692;2022-12-07T10:00:09;5.10;92.90
70820;DHT22;58439;51.046;13.692;2022-12-07T10:03:47;5.20;92.30
70820;DHT22;58439;51.046;13.692;2022-12-07T10:06:17;5.20;92.10
70820;DHT22;58439;51.046;13.692;2022-12-07T10:08:45;5.40;92.50
70820;DHT22;58439;51.046;13.692;2022-12-07T10:11:13;6.00;91.50
70820;DHT22;58439;51.046;13.692;2022-12-07T10:13:49;6.40;90.30
70820;DHT22;58439;51.046;13.692;2022-12-07T10:19:32;7.30;86.40
70820;DHT22;58439;51.046;13.692;2022-12-07T10:22:13;7.60;83.10
70820;DHT22;58439;51.046;13.692;2022-12-07T10:24:46;7.20;83.20
70820;DHT22;58439;51.046;13.692;2022-12-07T10:27:31;7.10;84.00
70820;DHT22;58439;51.046;13.692;2022-12-07T10:29:59;7.20;84.10
70820;DHT22;58439;51.046;13.692;2022-12-07T10:32:35;7.00;83.50
70820;DHT22;58439;51.046;13.692;2022-12-07T10:35:30;6.70;84.70
70820;DHT22;58439;51.046;13.692;2022-12-07T10:37:59;6.40;86.80
70820;DHT22;58439;51.046;13.692;2022-12-07T10:41:04;6.30;88.50
70820;DHT22;58439;51.046;13.692;2022-12-07T10:43:36;6.20;89.10
70820;DHT22;58439;51.046;13.692;2022-12-07T10:46:36;6.20;90.00
70820;DHT22;58439;51.046;13.692;2022-12-07T10:49:39;6.20;89.30
70820;DHT22;58439;51.046;13.692;2022-12-07T10:56:17;6.00;90.20
70820;DHT22;58439;51.046;13.692;2022-12-07T11:21:58;6.00;90.70
70820;DHT22;58439;51.046;13.692;2022-12-07T11:25:13;6.00;90.60
70820;DHT22;58439;51.046;13.692;2022-12-07T11:31:41;6.10;90.80
70820;DHT22;58439;51.046;13.692;2022-12-07T11:34:39;5.80;90.80
70820;DHT22;58439;51.046;13.692;2022-12-07T11:37:30;5.60;92.00
70820;DHT22;58439;51.046;13.692;2022-12-07T11:41:04;5.30;93.50
70820;DHT22;58439;51.046;13.692;2022-12-07T11:43:32;4.90;94.40
70820;DHT22;58439;51.046;13.692;2022-12-07T11:46:15;4.70;96.00
70820;DHT22;58439;51.046;13.692;2022-12-07T11:49:03;4.60;96.90
70820;DHT22;58439;51.046;13.692;2022-12-07T11:51:41;4.50;97.50
70820;DHT22;58439;51.046;13.692;2022-12-07T11:54:26;4.50;97.90
70820;DHT22;58439;51.046;13.692;2022-12-07T11:57:07;4.50;98.30
70820;DHT22;58439;51.046;13.692;2022-12-07T12:00:26;4.60;98.10
70820;DHT22;58439;51.046;13.692;2022-12-07T12:03:03;4.70;97.60
70820;DHT22;58439;51.046;13.692;2022-12-07T12:05:39;4.70;97.70
70820;DHT22;58439;51.046;13.692;2022-12-07T12:08:21;4.80;98.10
70820;DHT22;58439;51.046;13.692;2022-12-07T12:18:41;5.60;96.50
70820;DHT22;58439;51.046;13.692;2022-12-07T12:22:30;5.80;94.60
70820;DHT22;58439;51.046;13.692;2022-12-07T12:26:05;5.70;93.70
70820;DHT22;58439;51.046;13.692;2022-12-07T12:29:55;5.60;93.80
70820;DHT22;58439;51.046;13.692;2022-12-07T12:37:07;5.30;94.10
70820;DHT22;58439;51.046;13.692;2022-12-07T13:41:59;3.50;99.90
70820;DHT22;58439;51.046;13.692;2022-12-07T14:27:36;3.80;99.90
70820;DHT22;58439;51.046;13.692;2022-12-07T14:30:05;3.90;99.90
70820;DHT22;58439;51.046;13.692;2022-12-07T14:32:36;3.90;99.90
70820;DHT22;58439;51.046;13.692;2022-12-07T14:35:11;3.90;99.90
70820;DHT22;58439;51.046;13.692;2022-12-07T14:37:43;4.00;99.90
70820;DHT22;58439;51.046;13.692;2022-12-07T14:40:17;4.00;99.90
70820;DHT22;58439;51.046;13.692;2022-12-07T14:42:52;4.00;99.90
70820;DHT22;58439;51.046;13.692;2022-12-07T14:45:23;4.00;99.90
70820;DHT22;58439;51.046;13.692;2022-12-07T14:47:59;4.00;99.90
70820;DHT22;58439;51.046;13.692;2022-12-07T14:50:52;4.00;99.90
70820;DHT22;58439;51.046;13.692;2022-12-07T14:53:53;4.00;99.90
70820;DHT22;58439;51.046;13.692;2022-12-07T14:57:03;3.90;99.90
70820;DHT22;58439;51.046;13.692;2022-12-07T15:00:29;3.90;99.90
70820;DHT22;58439;51.046;13.692;2022-12-07T15:07:21;3.90;99.90
70820;DHT22;58439;51.046;13.692;2022-12-07T15:11:05;3.90;99.90
70820;DHT22;58439;51.046;13.692;2022-12-07T15:14:01;3.90;99.90
70820;DHT22;58439;51.046;13.692;2022-12-07T15:16:37;3.90;99.90
70820;DHT22;58439;51.046;13.692;2022-12-07T15:22:23;3.90;99.90
70820;DHT22;58439;51.046;13.692;2022-12-07T15:25:05;4.00;99.90
70820;DHT22;58439;51.046;13.692;2022-12-07T15:27:33;4.00;99.90
70820;DHT22;58439;51.046;13.692;2022-12-07T15:30:16;4.10;99.90
70820;DHT22;58439;51.046;13.692;2022-12-07T15:32:44;4.20;99.90
70820;DHT22;58439;51.046;13.692;2022-12-07T15:35:16;4.20;99.90
70820;DHT22;58439;51.046;13.692;2022-12-07T15:37:46;4.20;99.90
70820;DHT22;58439;51.046;13.692;2022-12-07T15:40:14;4.20;99.90
70820;DHT22;58439;51.046;13.692;2022-12-07T15:42:45;4.20;99.00
70820;DHT22;58439;51.046;13.692;2022-12-07T15:45:14;4.20;98.60
70820;DHT22;58439;51.046;13.692;2022-12-07T15:47:43;4.20;98.70
70820;DHT22;58439;51.046;13.692;2022-12-07T15:51:09;4.20;98.70
70820;DHT22;58439;51.046;13.692;2022-12-07T15:53:44;4.10;98.60
70820;DHT22;58439;51.046;13.692;2022-12-07T15:56:11;4.10;98.70
70820;DHT22;58439;51.046;13.692;2022-12-07T15:58:39;4.10;98.70
70820;DHT22;58439;51.046;13.692;2022-12-07T16:01:14;4.00;98.80
70820;DHT22;58439;51.046;13.692;2022-12-07T16:03:44;4.00;99.10
70820;DHT22;58439;51.046;13.692;2022-12-07T16:06:15;4.00;99.20
70820;DHT22;58439;51.046;13.692;2022-12-07T16:08:45;3.90;99.30
70820;DHT22;58439;51.046;13.692;2022-12-07T16:11:13;3.80;99.70
70820;DHT22;58439;51.046;13.692;2022-12-07T16:13:40;3.70;99.90
70820;DHT22;58439;51.046;13.692;2022-12-07T16:16:12;3.70;99.90
70820;DHT22;58439;51.046;13.692;2022-12-07T16:18:45;3.60;99.90
70820;DHT22;58439;51.046;13.692;2022-12-07T16:21:41;3.60;99.90
70820;DHT22;58439;51.046;13.692;2022-12-07T16:25:23;3.60;99.90
70820;DHT22;58439;51.046;13.692;2022-12-07T16:28:43;3.70;99.90
70820;DHT22;58439;51.046;13.692;2022-12-07T16:32:11;3.80;99.90
70820;DHT22;58439;51.046;13.692;2022-12-07T16:34:58;3.90;99.70
70820;DHT22;58439;51.046;13.692;2022-12-07T16:37:26;3.90;99.60
70820;DHT22;58439;51.046;13.692;2022-12-07T16:39:54;3.90;99.20
70820;DHT22;58439;51.046;13.692;2022-12-07T16:42:21;3.90;99.10
70820;DHT22;58439;51.046;13.692;2022-12-07T16:45:15;3.90;98.70
70820;DHT22;58439;51.046;13.692;2022-12-07T16:48:37;4.00;98.60
70820;DHT22;58439;51.046;13.692;2022-12-07T16:51:08;4.00;98.30
70820;DHT22;58439;51.046;13.692;2022-12-07T16:53:41;3.90;98.20
70820;DHT22;58439;51.046;13.692;2022-12-07T16:56:37;3.90;98.10
70820;DHT22;58439;51.046;13.692;2022-12-07T16:59:05;3.90;98.00
70820;DHT22;58439;51.046;13.692;2022-12-07T17:01:35;3.90;98.10
70820;DHT22;58439;51.046;13.692;2022-12-07T17:04:03;3.90;98.40
70820;DHT22;58439;51.046;13.692;2022-12-07T17:06:31;3.80;98.60
70820;DHT22;58439;51.046;13.692;2022-12-07T17:08:59;3.90;98.80
70820;DHT22;58439;51.046;13.692;2022-12-07T17:11:39;3.90;98.50
70820;DHT22;58439;51.046;13.692;2022-12-07T17:14:11;3.90;98.20
70820;DHT22;58439;51.046;13.692;2022-12-07T17:16:57;4.00;98.00
70820;DHT22;58439;51.046;13.692;2022-12-07T17:19:27;4.00;97.60
70820;DHT22;58439;51.046;13.692;2022-12-07T17:21:54;4.00;97.40
70820;DHT22;58439;51.046;13.692;2022-12-07T17:24:22;4.00;97.30
70820;DHT22;58439;51.046;13.692;2022-12-07T17:32:40;3.90;98.00
70820;DHT22;58439;51.046;13.692;2022-12-07T17:43:28;3.70;98.50
70820;DHT22;58439;51.046;13.692;2022-12-07T17:58:40;3.60;99.10
70820;DHT22;58439;51.046;13.692;2022-12-07T18:09:34;3.70;99.20
70820;DHT22;58439;51.046;13.692;2022-12-07T18:12:10;3.80;99.10
70820;DHT22;58439;51.046;13.692;2022-12-07T18:23:24;3.90;98.10
70820;DHT22;58439;51.046;13.692;2022-12-07T18:30:34;3.70;97.40
70820;DHT22;58439;51.046;13.692;2022-12-07T18:33:28;3.60;97.40
70820;DHT22;58439;51.046;13.692;2022-12-07T18:36:00;3.50;97.40
70820;DHT22;58439;51.046;13.692;2022-12-07T18:38:31;3.50;97.50
70820;DHT22;58439;51.046;13.692;2022-12-07T18:41:39;3.40;97.70
70820;DHT22;58439;51.046;13.692;2022-12-07T18:57:23;3.10;97.40
70820;DHT22;58439;51.046;13.692;2022-12-07T19:00:11;3.00;97.70
70820;DHT22;58439;51.046;13.692;2022-12-07T19:02:40;3.00;98.00
70820;DHT22;58439;51.046;13.692;2022-12-07T19:05:22;3.00;98.20
70820;DHT22;58439;51.046;13.692;2022-12-07T19:08:20;3.00;98.20
70820;DHT22;58439;51.046;13.692;2022-12-07T19:10:54;2.90;98.20
70820;DHT22;58439;51.046;13.692;2022-12-07T19:15:31;2.90;98.50
70820;DHT22;58439;51.046;13.692;2022-12-07T19:18:52;2.90;98.50
70820;DHT22;58439;51.046;13.692;2022-12-07T19:22:04;3.00;98.60
70820;DHT22;58439;51.046;13.692;2022-12-07T19:24:34;3.00;98.50
70820;DHT22;58439;51.046;13.692;2022-12-07T19:36:31;3.10;98.50
70820;DHT22;58439;51.046;13.692;2022-12-07T19:38:59;3.20;98.50
70820;DHT22;58439;51.046;13.692;2022-12-07T19:41:32;3.10;98.40
70820;DHT22;58439;51.046;13.692;2022-12-07T19:44:45;3.20;98.70
70820;DHT22;58439;51.046;13.692;2022-12-07T19:54:54;3.40;98.00
70820;DHT22;58439;51.046;13.692;2022-12-07T19:57:32;3.40;98.00
70820;DHT22;58439;51.046;13.692;2022-12-07T20:00:02;3.40;97.90
70820;DHT22;58439;51.046;13.692;2022-12-07T20:02:32;3.40;97.80
70820;DHT22;58439;51.046;13.692;2022-12-07T20:05:46;3.40;97.80
70820;DHT22;58439;51.046;13.692;2022-12-07T20:08:18;3.40;97.70
70820;DHT22;58439;51.046;13.692;2022-12-07T20:11:04;3.50;97.70
70820;DHT22;58439;51.046;13.692;2022-12-07T20:13:52;3.50;97.60
70820;DHT22;58439;51.046;13.692;2022-12-07T20:16:20;3.50;97.50
70820;DHT22;58439;51.046;13.692;2022-12-07T20:18:48;3.50;97.50
70820;DHT22;58439;51.046;13.692;2022-12-07T20:21:24;3.60;97.20
70820;DHT22;58439;51.046;13.692;2022-12-07T20:23:52;3.50;97.20
70820;DHT22;58439;51.046;13.692;2022-12-07T20:26:21;3.50;97.00
70820;DHT22;58439;51.046;13.692;2022-12-07T20:28:51;3.50;97.10
70820;DHT22;58439;51.046;13.692;2022-12-07T20:31:37;3.40;97.10
70820;DHT22;58439;51.046;13.692;2022-12-07T20:34:16;3.40;97.20
70820;DHT22;58439;51.046;13.692;2022-12-07T20:37:00;3.30;97.30
70820;DHT22;58439;51.046;13.692;2022-12-07T20:39:28;3.30;97.90
70820;DHT22;58439;51.046;13.692;2022-12-07T20:42:02;3.20;97.60
70820;DHT22;58439;51.046;13.692;2022-12-07T20:44:49;3.20;97.60
70820;DHT22;58439;51.046;13.692;2022-12-07T20:47:17;3.20;97.60
70820;DHT22;58439;51.046;13.692;2022-12-07T20:49:46;3.20;97.60
70820;DHT22;58439;51.046;13.692;2022-12-07T20:52:14;3.20;97.60
70820;DHT22;58439;51.046;13.692;2022-12-07T20:54:47;3.20;98.00
70820;DHT22;58439;51.046;13.692;2022-12-07T20:57:17;3.30;97.60
70820;DHT22;58439;51.046;13.692;2022-12-07T20:59:45;3.30;97.40
70820;DHT22;58439;51.046;13.692;2022-12-07T21:02:21;3.30;97.60
70820;DHT22;58439;51.046;13.692;2022-12-07T21:05:25;3.30;97.20
70820;DHT22;58439;51.046;13.692;2022-12-07T21:18:59;3.20;97.20
70820;DHT22;58439;51.046;13.692;2022-12-07T21:21:39;3.20;97.20
70820;DHT22;58439;51.046;13.692;2022-12-07T21:24:09;3.10;97.20